sensor_id;sensor_type;location;lat;lon;timestamp;P1;durP1;ratioP1;P2;durP2;ratioP2
34920;SDS011;21128;50.016;20.002;2023-05-07T00:00:42;20.62;;;15.63;;
34920;SDS011;21128;50.016;20.002;2023-05-07T00:03:22;19.97;;;15.93;;
34920;SDS011;21128;50.016;20.002;2023-05-07T00:05:51;23.03;;;16.83;;
34920;SDS011;21128;50.016;20.002;2023-05-07T00:08:19;21.80;;;16.43;;
34920;SDS011;21128;50.016;20.002;2023-05-07T00:10:47;21.57;;;16.10;;
34920;SDS011;21128;50.016;20.002;2023-05-07T00:13:14;24.97;;;15.53;;
34920;SDS011;21128;50.016;20.002;2023-05-07T00:15:41;22.93;;;15.60;;
34920;SDS011;21128;50.016;20.002;2023-05-07T00:18:08;23.17;;;15.30;;
34920;SDS011;21128;50.016;20.002;2023-05-07T00:20:35;22.77;;;16.27;;
34920;SDS011;21128;50.016;20.002;2023-05-07T00:23:02;24.50;;;16.30;;
34920;SDS011;21128;50.016;20.002;2023-05-07T00:25:29;24.77;;;16.13;;
34920;SDS011;21128;50.016;20.002;2023-05-07T00:27:56;27.77;;;15.63;;
34920;SDS011;21128;50.016;20.002;2023-05-07T00:30:29;25.50;;;14.85;;
34920;SDS011;21128;50.016;20.002;2023-05-07T00:32:56;22.73;;;15.20;;
34920;SDS011;21128;50.016;20.002;2023-05-07T00:35:23;30.23;;;16.00;;
34920;SDS011;21128;50.016;20.002;2023-05-07T00:37:50;23.00;;;14.50;;
34920;SDS011;21128;50.016;20.002;2023-05-07T00:40:17;24.33;;;14.33;;
34920;SDS011;21128;50.016;20.002;2023-05-07T00:42:44;21.40;;;14.20;;
34920;SDS011;21128;50.016;20.002;2023-05-07T00:45:13;21.37;;;15.13;;
34920;SDS011;21128;50.016;20.002;2023-05-07T00:47:41;24.57;;;15.73;;
34920;SDS011;21128;50.016;20.002;2023-05-07T00:50:08;31.83;;;16.13;;
34920;SDS011;21128;50.016;20.002;2023-05-07T00:52:39;23.33;;;14.27;;
34920;SDS011;21128;50.016;20.002;2023-05-07T00:55:06;26.03;;;15.43;;
34920;SDS011;21128;50.016;20.002;2023-05-07T00:57:36;23.03;;;14.10;;
34920;SDS011;21128;50.016;20.002;2023-05-07T01:00:04;21.33;;;15.43;;
34920;SDS011;21128;50.016;20.002;2023-05-07T01:02:32;24.07;;;14.57;;
34920;SDS011;21128;50.016;20.002;2023-05-07T01:04:59;29.23;;;16.07;;
34920;SDS011;21128;50.016;20.002;2023-05-07T01:07:27;25.67;;;15.27;;
34920;SDS011;21128;50.016;20.002;2023-05-07T01:09:56;26.05;;;15.50;;
34920;SDS011;21128;50.016;20.002;2023-05-07T01:12:24;21.93;;;13.93;;
34920;SDS011;21128;50.016;20.002;2023-05-07T01:14:55;25.23;;;15.43;;
34920;SDS011;21128;50.016;20.002;2023-05-07T01:17:22;22.17;;;14.57;;
34920;SDS011;21128;50.016;20.002;2023-05-07T01:19:50;19.45;;;14.40;;
34920;SDS011;21128;50.016;20.002;2023-05-07T01:22:17;23.73;;;13.98;;
34920;SDS011;21128;50.016;20.002;2023-05-07T01:24:56;23.80;;;14.30;;
34920;SDS011;21128;50.016;20.002;2023-05-07T01:27:25;21.23;;;14.13;;
34920;SDS011;21128;50.016;20.002;2023-05-07T01:29:52;18.15;;;13.55;;
34920;SDS011;21128;50.016;20.002;2023-05-07T01:32:21;25.40;;;14.03;;
34920;SDS011;21128;50.016;20.002;2023-05-07T01:35:00;21.20;;;14.27;;
34920;SDS011;21128;50.016;20.002;2023-05-07T01:37:29;22.93;;;14.37;;
34920;SDS011;21128;50.016;20.002;2023-05-07T01:39:55;23.27;;;14.98;;
34920;SDS011;21128;50.016;20.002;2023-05-07T01:42:23;23.00;;;14.45;;
34920;SDS011;21128;50.016;20.002;2023-05-07T01:44:51;23.32;;;15.28;;
34920;SDS011;21128;50.016;20.002;2023-05-07T01:47:18;29.80;;;15.50;;
34920;SDS011;21128;50.016;20.002;2023-05-07T01:49:46;26.17;;;16.70;;
34920;SDS011;21128;50.016;20.002;2023-05-07T01:52:14;32.13;;;15.50;;
34920;SDS011;21128;50.016;20.002;2023-05-07T01:54:41;25.57;;;16.33;;
34920;SDS011;21128;50.016;20.002;2023-05-07T01:57:08;24.37;;;16.02;;
34920;SDS011;21128;50.016;20.002;2023-05-07T01:59:35;26.03;;;16.10;;
34920;SDS011;21128;50.016;20.002;2023-05-07T02:02:02;29.60;;;18.60;;
34920;SDS011;21128;50.016;20.002;2023-05-07T02:04:29;35.33;;;18.00;;
34920;SDS011;21128;50.016;20.002;2023-05-07T02:06:56;28.73;;;18.77;;
34920;SDS011;21128;50.016;20.002;2023-05-07T02:09:22;34.73;;;19.23;;
34920;SDS011;21128;50.016;20.002;2023-05-07T02:11:50;29.90;;;20.30;;
34920;SDS011;21128;50.016;20.002;2023-05-07T02:14:17;33.83;;;19.10;;
34920;SDS011;21128;50.016;20.002;2023-05-07T02:16:44;34.20;;;19.17;;
34920;SDS011;21128;50.016;20.002;2023-05-07T02:19:11;28.00;;;18.65;;
34920;SDS011;21128;50.016;20.002;2023-05-07T02:21:38;27.57;;;19.13;;
34920;SDS011;21128;50.016;20.002;2023-05-07T02:24:05;27.00;;;17.83;;
34920;SDS011;21128;50.016;20.002;2023-05-07T02:26:32;24.60;;;15.98;;
34920;SDS011;21128;50.016;20.002;2023-05-07T02:28:59;23.77;;;16.70;;
34920;SDS011;21128;50.016;20.002;2023-05-07T02:31:26;21.57;;;14.93;;
34920;SDS011;21128;50.016;20.002;2023-05-07T02:33:53;25.57;;;14.73;;
34920;SDS011;21128;50.016;20.002;2023-05-07T02:36:20;24.70;;;14.65;;
34920;SDS011;21128;50.016;20.002;2023-05-07T02:38:47;21.40;;;14.47;;
34920;SDS011;21128;50.016;20.002;2023-05-07T02:41:14;21.13;;;13.13;;
34920;SDS011;21128;50.016;20.002;2023-05-07T02:43:41;19.07;;;13.30;;
34920;SDS011;21128;50.016;20.002;2023-05-07T02:46:08;17.90;;;12.85;;
34920;SDS011;21128;50.016;20.002;2023-05-07T02:48:35;21.55;;;12.50;;
34920;SDS011;21128;50.016;20.002;2023-05-07T02:51:03;19.07;;;12.10;;
34920;SDS011;21128;50.016;20.002;2023-05-07T02:53:30;14.98;;;11.22;;
34920;SDS011;21128;50.016;20.002;2023-05-07T02:55:58;17.77;;;12.17;;
34920;SDS011;21128;50.016;20.002;2023-05-07T02:58:26;14.60;;;11.17;;
34920;SDS011;21128;50.016;20.002;2023-05-07T03:00:53;17.23;;;11.93;;
34920;SDS011;21128;50.016;20.002;2023-05-07T03:03:23;16.33;;;10.77;;
34920;SDS011;21128;50.016;20.002;2023-05-07T03:05:50;18.80;;;12.43;;
34920;SDS011;21128;50.016;20.002;2023-05-07T03:08:17;18.20;;;11.90;;
34920;SDS011;21128;50.016;20.002;2023-05-07T03:10:44;15.57;;;10.87;;
34920;SDS011;21128;50.016;20.002;2023-05-07T03:13:11;21.23;;;11.67;;
34920;SDS011;21128;50.016;20.002;2023-05-07T03:15:38;20.20;;;12.57;;
34920;SDS011;21128;50.016;20.002;2023-05-07T03:18:05;17.73;;;12.47;;
34920;SDS011;21128;50.016;20.002;2023-05-07T03:20:32;16.00;;;11.53;;
34920;SDS011;21128;50.016;20.002;2023-05-07T03:22:59;14.03;;;11.00;;
34920;SDS011;21128;50.016;20.002;2023-05-07T03:25:27;17.50;;;11.37;;
34920;SDS011;21128;50.016;20.002;2023-05-07T03:27:54;15.80;;;10.33;;
34920;SDS011;21128;50.016;20.002;2023-05-07T03:30:21;17.27;;;11.28;;
34920;SDS011;21128;50.016;20.002;2023-05-07T03:32:48;15.77;;;9.93;;
34920;SDS011;21128;50.016;20.002;2023-05-07T03:35:14;19.02;;;10.13;;
34920;SDS011;21128;50.016;20.002;2023-05-07T03:37:41;18.00;;;8.40;;
34920;SDS011;21128;50.016;20.002;2023-05-07T03:40:09;11.67;;;7.67;;
34920;SDS011;21128;50.016;20.002;2023-05-07T03:42:36;9.85;;;6.75;;
34920;SDS011;21128;50.016;20.002;2023-05-07T03:45:03;11.80;;;6.73;;
34920;SDS011;21128;50.016;20.002;2023-05-07T03:47:31;9.17;;;6.20;;
34920;SDS011;21128;50.016;20.002;2023-05-07T03:49:58;7.10;;;5.20;;
34920;SDS011;21128;50.016;20.002;2023-05-07T03:52:25;7.30;;;5.40;;
34920;SDS011;21128;50.016;20.002;2023-05-07T03:54:53;7.20;;;4.62;;
34920;SDS011;21128;50.016;20.002;2023-05-07T03:57:20;7.47;;;4.10;;
34920;SDS011;21128;50.016;20.002;2023-05-07T03:59:47;7.07;;;4.20;;
34920;SDS011;21128;50.016;20.002;2023-05-07T04:02:14;6.53;;;3.57;;
34920;SDS011;21128;50.016;20.002;2023-05-07T04:04:41;7.23;;;4.27;;
34920;SDS011;21128;50.016;20.002;2023-05-07T04:07:08;4.77;;;3.37;;
34920;SDS011;21128;50.016;20.002;2023-05-07T04:09:35;6.77;;;3.13;;
34920;SDS011;21128;50.016;20.002;2023-05-07T04:12:02;6.23;;;3.00;;
34920;SDS011;21128;50.016;20.002;2023-05-07T04:14:30;6.03;;;2.87;;
34920;SDS011;21128;50.016;20.002;2023-05-07T04:16:59;7.20;;;3.20;;
34920;SDS011;21128;50.016;20.002;2023-05-07T04:19:26;3.35;;;2.85;;
34920;SDS011;21128;50.016;20.002;2023-05-07T04:21:53;3.45;;;2.95;;
34920;SDS011;21128;50.016;20.002;2023-05-07T04:24:20;6.37;;;3.83;;
34920;SDS011;21128;50.016;20.002;2023-05-07T04:26:47;6.87;;;3.43;;
34920;SDS011;21128;50.016;20.002;2023-05-07T04:29:13;6.77;;;3.70;;
34920;SDS011;21128;50.016;20.002;2023-05-07T04:31:40;3.93;;;3.30;;
34920;SDS011;21128;50.016;20.002;2023-05-07T04:34:11;5.30;;;3.37;;
34920;SDS011;21128;50.016;20.002;2023-05-07T04:36:38;6.53;;;3.97;;
34920;SDS011;21128;50.016;20.002;2023-05-07T04:39:05;5.10;;;3.83;;
34920;SDS011;21128;50.016;20.002;2023-05-07T04:41:33;3.80;;;3.10;;
34920;SDS011;21128;50.016;20.002;2023-05-07T04:44:02;5.60;;;3.27;;
34920;SDS011;21128;50.016;20.002;2023-05-07T04:46:30;4.60;;;3.47;;
34920;SDS011;21128;50.016;20.002;2023-05-07T04:48:57;5.90;;;3.55;;
34920;SDS011;21128;50.016;20.002;2023-05-07T04:51:24;5.00;;;3.20;;
34920;SDS011;21128;50.016;20.002;2023-05-07T04:53:51;5.65;;;3.60;;
34920;SDS011;21128;50.016;20.002;2023-05-07T04:56:18;4.27;;;3.30;;
34920;SDS011;21128;50.016;20.002;2023-05-07T04:58:46;5.00;;;3.10;;
34920;SDS011;21128;50.016;20.002;2023-05-07T05:01:13;8.23;;;3.10;;
34920;SDS011;21128;50.016;20.002;2023-05-07T05:03:40;4.77;;;2.93;;
34920;SDS011;21128;50.016;20.002;2023-05-07T05:06:07;5.07;;;2.87;;
34920;SDS011;21128;50.016;20.002;2023-05-07T05:08:34;3.67;;;2.55;;
34920;SDS011;21128;50.016;20.002;2023-05-07T05:11:01;4.33;;;3.03;;
34920;SDS011;21128;50.016;20.002;2023-05-07T05:13:29;5.70;;;3.67;;
34920;SDS011;21128;50.016;20.002;2023-05-07T05:15:56;4.10;;;3.03;;
34920;SDS011;21128;50.016;20.002;2023-05-07T05:18:23;6.53;;;3.00;;
34920;SDS011;21128;50.016;20.002;2023-05-07T05:20:51;3.73;;;2.40;;
34920;SDS011;21128;50.016;20.002;2023-05-07T05:23:18;4.70;;;2.57;;
34920;SDS011;21128;50.016;20.002;2023-05-07T05:25:46;3.67;;;2.47;;
34920;SDS011;21128;50.016;20.002;2023-05-07T05:28:13;5.20;;;2.43;;
34920;SDS011;21128;50.016;20.002;2023-05-07T05:30:40;2.95;;;2.60;;
34920;SDS011;21128;50.016;20.002;2023-05-07T05:33:07;4.23;;;2.50;;
34920;SDS011;21128;50.016;20.002;2023-05-07T05:35:34;5.13;;;2.30;;
34920;SDS011;21128;50.016;20.002;2023-05-07T05:38:01;2.52;;;2.05;;
34920;SDS011;21128;50.016;20.002;2023-05-07T05:40:29;6.13;;;2.83;;
34920;SDS011;21128;50.016;20.002;2023-05-07T05:42:56;4.10;;;2.10;;
34920;SDS011;21128;50.016;20.002;2023-05-07T05:45:23;3.57;;;2.37;;
34920;SDS011;21128;50.016;20.002;2023-05-07T05:47:50;2.70;;;1.90;;
34920;SDS011;21128;50.016;20.002;2023-05-07T05:50:18;5.67;;;2.10;;
34920;SDS011;21128;50.016;20.002;2023-05-07T05:52:45;7.80;;;2.20;;
34920;SDS011;21128;50.016;20.002;2023-05-07T05:55:12;3.33;;;1.97;;
34920;SDS011;21128;50.016;20.002;2023-05-07T05:57:38;4.57;;;1.83;;
34920;SDS011;21128;50.016;20.002;2023-05-07T06:00:07;3.20;;;2.00;;
34920;SDS011;21128;50.016;20.002;2023-05-07T06:02:34;3.73;;;1.90;;
34920;SDS011;21128;50.016;20.002;2023-05-07T06:05:01;3.92;;;2.12;;
34920;SDS011;21128;50.016;20.002;2023-05-07T06:07:28;2.77;;;2.00;;
34920;SDS011;21128;50.016;20.002;2023-05-07T06:09:55;3.80;;;2.60;;
34920;SDS011;21128;50.016;20.002;2023-05-07T06:12:22;3.73;;;2.37;;
34920;SDS011;21128;50.016;20.002;2023-05-07T06:14:49;4.33;;;2.00;;
34920;SDS011;21128;50.016;20.002;2023-05-07T06:17:16;4.63;;;2.40;;
34920;SDS011;21128;50.016;20.002;2023-05-07T06:19:43;3.67;;;2.37;;
34920;SDS011;21128;50.016;20.002;2023-05-07T06:22:10;5.17;;;2.50;;
34920;SDS011;21128;50.016;20.002;2023-05-07T06:24:37;4.10;;;2.47;;
34920;SDS011;21128;50.016;20.002;2023-05-07T06:27:04;2.97;;;2.37;;
34920;SDS011;21128;50.016;20.002;2023-05-07T06:29:31;3.05;;;1.90;;
34920;SDS011;21128;50.016;20.002;2023-05-07T06:32:06;3.70;;;2.00;;
34920;SDS011;21128;50.016;20.002;2023-05-07T06:34:37;3.53;;;2.17;;
34920;SDS011;21128;50.016;20.002;2023-05-07T06:37:05;3.20;;;2.30;;
34920;SDS011;21128;50.016;20.002;2023-05-07T06:39:33;5.50;;;2.50;;
34920;SDS011;21128;50.016;20.002;2023-05-07T06:42:00;4.33;;;2.33;;
34920;SDS011;21128;50.016;20.002;2023-05-07T06:44:31;3.17;;;1.63;;
34920;SDS011;21128;50.016;20.002;2023-05-07T06:46:58;5.40;;;1.87;;
34920;SDS011;21128;50.016;20.002;2023-05-07T06:49:25;3.98;;;2.22;;
34920;SDS011;21128;50.016;20.002;2023-05-07T06:51:52;5.00;;;2.43;;
34920;SDS011;21128;50.016;20.002;2023-05-07T06:54:19;5.13;;;2.40;;
34920;SDS011;21128;50.016;20.002;2023-05-07T06:56:47;3.58;;;2.05;;
34920;SDS011;21128;50.016;20.002;2023-05-07T06:59:14;4.47;;;2.43;;
34920;SDS011;21128;50.016;20.002;2023-05-07T07:01:41;3.55;;;2.37;;
34920;SDS011;21128;50.016;20.002;2023-05-07T07:04:08;2.73;;;2.20;;
34920;SDS011;21128;50.016;20.002;2023-05-07T07:06:35;4.08;;;2.20;;
34920;SDS011;21128;50.016;20.002;2023-05-07T07:09:02;5.13;;;2.10;;
34920;SDS011;21128;50.016;20.002;2023-05-07T07:11:29;6.00;;;2.80;;
34920;SDS011;21128;50.016;20.002;2023-05-07T07:13:56;5.33;;;2.33;;
34920;SDS011;21128;50.016;20.002;2023-05-07T07:16:26;4.35;;;2.20;;
34920;SDS011;21128;50.016;20.002;2023-05-07T07:18:53;2.70;;;2.17;;
34920;SDS011;21128;50.016;20.002;2023-05-07T07:21:20;3.95;;;2.55;;
34920;SDS011;21128;50.016;20.002;2023-05-07T07:23:47;2.30;;;2.10;;
34920;SDS011;21128;50.016;20.002;2023-05-07T07:26:14;2.77;;;2.10;;
34920;SDS011;21128;50.016;20.002;2023-05-07T07:28:42;3.00;;;2.20;;
34920;SDS011;21128;50.016;20.002;2023-05-07T07:31:10;4.73;;;2.40;;
34920;SDS011;21128;50.016;20.002;2023-05-07T07:33:37;2.73;;;2.27;;
34920;SDS011;21128;50.016;20.002;2023-05-07T07:36:05;2.87;;;1.90;;
34920;SDS011;21128;50.016;20.002;2023-05-07T07:38:33;3.53;;;2.00;;
34920;SDS011;21128;50.016;20.002;2023-05-07T07:41:01;3.50;;;2.17;;
34920;SDS011;21128;50.016;20.002;2023-05-07T07:43:28;2.93;;;2.23;;
34920;SDS011;21128;50.016;20.002;2023-05-07T07:45:55;2.30;;;2.10;;
34920;SDS011;21128;50.016;20.002;2023-05-07T07:48:22;5.50;;;2.15;;
34920;SDS011;21128;50.016;20.002;2023-05-07T07:50:49;5.20;;;1.80;;
34920;SDS011;21128;50.016;20.002;2023-05-07T07:53:17;3.10;;;2.20;;
34920;SDS011;21128;50.016;20.002;2023-05-07T07:55:45;3.10;;;2.23;;
34920;SDS011;21128;50.016;20.002;2023-05-07T07:58:12;3.27;;;2.13;;
34920;SDS011;21128;50.016;20.002;2023-05-07T08:00:39;7.65;;;2.40;;
34920;SDS011;21128;50.016;20.002;2023-05-07T08:03:08;2.50;;;2.03;;
34920;SDS011;21128;50.016;20.002;2023-05-07T08:05:36;2.63;;;1.90;;
34920;SDS011;21128;50.016;20.002;2023-05-07T08:08:05;5.20;;;2.27;;
34920;SDS011;21128;50.016;20.002;2023-05-07T08:10:32;6.40;;;2.37;;
34920;SDS011;21128;50.016;20.002;2023-05-07T08:13:04;3.80;;;1.90;;
34920;SDS011;21128;50.016;20.002;2023-05-07T08:15:32;2.97;;;2.00;;
34920;SDS011;21128;50.016;20.002;2023-05-07T08:17:59;2.85;;;2.10;;
34920;SDS011;21128;50.016;20.002;2023-05-07T08:20:28;4.40;;;2.20;;
34920;SDS011;21128;50.016;20.002;2023-05-07T08:22:56;2.70;;;2.10;;
34920;SDS011;21128;50.016;20.002;2023-05-07T08:25:23;2.47;;;2.23;;
34920;SDS011;21128;50.016;20.002;2023-05-07T08:27:50;3.23;;;2.40;;
34920;SDS011;21128;50.016;20.002;2023-05-07T08:30:17;4.53;;;2.30;;
34920;SDS011;21128;50.016;20.002;2023-05-07T08:32:44;3.83;;;2.40;;
34920;SDS011;21128;50.016;20.002;2023-05-07T08:35:11;5.00;;;2.00;;
34920;SDS011;21128;50.016;20.002;2023-05-07T08:37:38;5.53;;;2.47;;
34920;SDS011;21128;50.016;20.002;2023-05-07T08:40:05;3.33;;;2.40;;
34920;SDS011;21128;50.016;20.002;2023-05-07T08:42:37;4.60;;;2.45;;
34920;SDS011;21128;50.016;20.002;2023-05-07T08:45:09;2.87;;;2.10;;
34920;SDS011;21128;50.016;20.002;2023-05-07T08:47:42;3.30;;;2.33;;
34920;SDS011;21128;50.016;20.002;2023-05-07T08:50:11;2.93;;;2.23;;
34920;SDS011;21128;50.016;20.002;2023-05-07T08:52:40;4.75;;;2.40;;
34920;SDS011;21128;50.016;20.002;2023-05-07T08:55:07;3.37;;;2.20;;
34920;SDS011;21128;50.016;20.002;2023-05-07T08:57:35;3.90;;;2.40;;
34920;SDS011;21128;50.016;20.002;2023-05-07T09:00:03;5.42;;;2.80;;
34920;SDS011;21128;50.016;20.002;2023-05-07T09:02:30;4.07;;;2.77;;
34920;SDS011;21128;50.016;20.002;2023-05-07T09:04:57;4.93;;;3.13;;
34920;SDS011;21128;50.016;20.002;2023-05-07T09:07:24;4.33;;;2.83;;
34920;SDS011;21128;50.016;20.002;2023-05-07T09:09:53;5.45;;;2.90;;
34920;SDS011;21128;50.016;20.002;2023-05-07T09:12:21;4.43;;;3.33;;
34920;SDS011;21128;50.016;20.002;2023-05-07T09:14:49;4.07;;;2.93;;
34920;SDS011;21128;50.016;20.002;2023-05-07T09:17:16;5.90;;;3.27;;
34920;SDS011;21128;50.016;20.002;2023-05-07T09:19:46;4.63;;;3.30;;
34920;SDS011;21128;50.016;20.002;2023-05-07T09:22:14;4.07;;;2.80;;
34920;SDS011;21128;50.016;20.002;2023-05-07T09:24:47;6.30;;;2.60;;
34920;SDS011;21128;50.016;20.002;2023-05-07T09:27:17;4.67;;;2.77;;
34920;SDS011;21128;50.016;20.002;2023-05-07T09:29:44;5.33;;;3.20;;
34920;SDS011;21128;50.016;20.002;2023-05-07T09:32:11;4.33;;;2.80;;
34920;SDS011;21128;50.016;20.002;2023-05-07T09:34:38;5.27;;;2.87;;
34920;SDS011;21128;50.016;20.002;2023-05-07T09:37:06;3.17;;;2.57;;
34920;SDS011;21128;50.016;20.002;2023-05-07T09:42:07;3.50;;;2.90;;
34920;SDS011;21128;50.016;20.002;2023-05-07T09:44:34;3.10;;;2.47;;
34920;SDS011;21128;50.016;20.002;2023-05-07T09:47:04;3.10;;;2.50;;
34920;SDS011;21128;50.016;20.002;2023-05-07T09:49:37;3.47;;;2.73;;
34920;SDS011;21128;50.016;20.002;2023-05-07T09:52:06;4.15;;;2.90;;
34920;SDS011;21128;50.016;20.002;2023-05-07T09:54:35;4.17;;;2.97;;
34920;SDS011;21128;50.016;20.002;2023-05-07T09:57:05;3.57;;;2.77;;
34920;SDS011;21128;50.016;20.002;2023-05-07T09:59:34;5.30;;;3.33;;
34920;SDS011;21128;50.016;20.002;2023-05-07T10:02:03;4.67;;;3.10;;
34920;SDS011;21128;50.016;20.002;2023-05-07T10:04:31;4.40;;;3.30;;
34920;SDS011;21128;50.016;20.002;2023-05-07T10:06:58;8.23;;;4.07;;
34920;SDS011;21128;50.016;20.002;2023-05-07T10:09:27;4.83;;;3.00;;
34920;SDS011;21128;50.016;20.002;2023-05-07T10:11:55;5.43;;;3.77;;
34920;SDS011;21128;50.016;20.002;2023-05-07T10:14:23;3.97;;;2.83;;
34920;SDS011;21128;50.016;20.002;2023-05-07T10:16:51;3.70;;;2.90;;
34920;SDS011;21128;50.016;20.002;2023-05-07T10:19:20;6.20;;;3.00;;
34920;SDS011;21128;50.016;20.002;2023-05-07T10:21:55;4.33;;;3.10;;
34920;SDS011;21128;50.016;20.002;2023-05-07T10:24:27;6.00;;;3.25;;
34920;SDS011;21128;50.016;20.002;2023-05-07T10:26:58;5.00;;;3.20;;
34920;SDS011;21128;50.016;20.002;2023-05-07T10:34:36;7.10;;;3.37;;
34920;SDS011;21128;50.016;20.002;2023-05-07T10:37:07;5.10;;;3.77;;
34920;SDS011;21128;50.016;20.002;2023-05-07T10:39:39;5.63;;;4.07;;
34920;SDS011;21128;50.016;20.002;2023-05-07T10:42:11;4.70;;;3.67;;
34920;SDS011;21128;50.016;20.002;2023-05-07T10:44:42;7.80;;;3.90;;
34920;SDS011;21128;50.016;20.002;2023-05-07T10:47:13;5.77;;;3.87;;
34920;SDS011;21128;50.016;20.002;2023-05-07T10:52:17;5.63;;;3.70;;
34920;SDS011;21128;50.016;20.002;2023-05-07T10:54:46;6.20;;;3.63;;
34920;SDS011;21128;50.016;20.002;2023-05-07T11:00:40;5.87;;;3.30;;
34920;SDS011;21128;50.016;20.002;2023-05-07T11:05:30;5.47;;;4.20;;
34920;SDS011;21128;50.016;20.002;2023-05-07T11:08:02;7.22;;;4.25;;
34920;SDS011;21128;50.016;20.002;2023-05-07T11:10:50;7.97;;;3.57;;
34920;SDS011;21128;50.016;20.002;2023-05-07T11:13:41;9.47;;;4.40;;
34920;SDS011;21128;50.016;20.002;2023-05-07T11:16:22;4.73;;;3.40;;
34920;SDS011;21128;50.016;20.002;2023-05-07T11:18:50;5.50;;;3.50;;
34920;SDS011;21128;50.016;20.002;2023-05-07T11:21:37;5.07;;;3.40;;
34920;SDS011;21128;50.016;20.002;2023-05-07T11:24:07;4.50;;;3.40;;
34920;SDS011;21128;50.016;20.002;2023-05-07T11:26:48;3.63;;;3.23;;
34920;SDS011;21128;50.016;20.002;2023-05-07T11:29:22;4.27;;;3.33;;
34920;SDS011;21128;50.016;20.002;2023-05-07T11:31:49;4.17;;;3.37;;
34920;SDS011;21128;50.016;20.002;2023-05-07T11:34:22;6.20;;;3.70;;
34920;SDS011;21128;50.016;20.002;2023-05-07T11:36:50;4.93;;;3.37;;
34920;SDS011;21128;50.016;20.002;2023-05-07T11:39:25;5.67;;;3.30;;
34920;SDS011;21128;50.016;20.002;2023-05-07T11:41:56;4.35;;;3.20;;
34920;SDS011;21128;50.016;20.002;2023-05-07T11:44:23;3.72;;;3.33;;
34920;SDS011;21128;50.016;20.002;2023-05-07T11:46:50;4.80;;;3.40;;
34920;SDS011;21128;50.016;20.002;2023-05-07T11:49:18;5.12;;;3.17;;
34920;SDS011;21128;50.016;20.002;2023-05-07T11:51:45;5.10;;;3.00;;
34920;SDS011;21128;50.016;20.002;2023-05-07T11:54:15;4.45;;;3.50;;
34920;SDS011;21128;50.016;20.002;2023-05-07T11:56:43;4.33;;;3.20;;
34920;SDS011;21128;50.016;20.002;2023-05-07T11:59:11;4.00;;;2.90;;
34920;SDS011;21128;50.016;20.002;2023-05-07T12:01:38;5.40;;;3.00;;
34920;SDS011;21128;50.016;20.002;2023-05-07T12:04:05;6.07;;;3.13;;
34920;SDS011;21128;50.016;20.002;2023-05-07T12:06:35;3.43;;;2.40;;
34920;SDS011;21128;50.016;20.002;2023-05-07T12:09:02;4.00;;;2.77;;
34920;SDS011;21128;50.016;20.002;2023-05-07T12:11:30;5.30;;;2.73;;
34920;SDS011;21128;50.016;20.002;2023-05-07T12:13:57;2.83;;;2.30;;
34920;SDS011;21128;50.016;20.002;2023-05-07T12:16:24;3.70;;;2.33;;
34920;SDS011;21128;50.016;20.002;2023-05-07T12:18:51;5.00;;;2.77;;
34920;SDS011;21128;50.016;20.002;2023-05-07T12:21:21;6.17;;;2.63;;
34920;SDS011;21128;50.016;20.002;2023-05-07T12:23:49;5.50;;;2.53;;
34920;SDS011;21128;50.016;20.002;2023-05-07T12:26:18;8.10;;;3.10;;
34920;SDS011;21128;50.016;20.002;2023-05-07T12:28:47;6.60;;;2.80;;
34920;SDS011;21128;50.016;20.002;2023-05-07T12:31:14;5.80;;;2.77;;
34920;SDS011;21128;50.016;20.002;2023-05-07T12:33:42;5.93;;;2.80;;
34920;SDS011;21128;50.016;20.002;2023-05-07T12:36:11;5.83;;;3.60;;
34920;SDS011;21128;50.016;20.002;2023-05-07T12:38:39;6.23;;;2.93;;
34920;SDS011;21128;50.016;20.002;2023-05-07T12:41:10;3.20;;;2.40;;
34920;SDS011;21128;50.016;20.002;2023-05-07T12:43:38;6.37;;;2.80;;
34920;SDS011;21128;50.016;20.002;2023-05-07T12:46:06;6.20;;;3.42;;
34920;SDS011;21128;50.016;20.002;2023-05-07T12:48:35;4.97;;;3.37;;
34920;SDS011;21128;50.016;20.002;2023-05-07T12:51:04;6.53;;;4.27;;
34920;SDS011;21128;50.016;20.002;2023-05-07T12:53:32;6.83;;;4.90;;
34920;SDS011;21128;50.016;20.002;2023-05-07T12:55:59;5.83;;;3.98;;
34920;SDS011;21128;50.016;20.002;2023-05-07T12:58:28;5.30;;;3.60;;
34920;SDS011;21128;50.016;20.002;2023-05-07T13:00:57;9.37;;;4.87;;
34920;SDS011;21128;50.016;20.002;2023-05-07T13:03:26;6.00;;;3.33;;
34920;SDS011;21128;50.016;20.002;2023-05-07T13:06:02;7.45;;;3.42;;
34920;SDS011;21128;50.016;20.002;2023-05-07T13:08:35;8.63;;;3.37;;
34920;SDS011;21128;50.016;20.002;2023-05-07T13:11:04;6.40;;;3.83;;
34920;SDS011;21128;50.016;20.002;2023-05-07T13:13:34;5.53;;;3.17;;
34920;SDS011;21128;50.016;20.002;2023-05-07T13:16:03;3.80;;;2.90;;
34920;SDS011;21128;50.016;20.002;2023-05-07T13:18:32;6.23;;;3.37;;
34920;SDS011;21128;50.016;20.002;2023-05-07T13:21:00;3.90;;;2.63;;
34920;SDS011;21128;50.016;20.002;2023-05-07T13:23:28;5.40;;;3.50;;
34920;SDS011;21128;50.016;20.002;2023-05-07T13:25:55;7.33;;;3.40;;
34920;SDS011;21128;50.016;20.002;2023-05-07T13:28:25;8.07;;;3.23;;
34920;SDS011;21128;50.016;20.002;2023-05-07T13:30:52;7.73;;;3.40;;
34920;SDS011;21128;50.016;20.002;2023-05-07T13:33:21;4.77;;;3.77;;
34920;SDS011;21128;50.016;20.002;2023-05-07T13:35:48;6.50;;;3.75;;
34920;SDS011;21128;50.016;20.002;2023-05-07T13:38:15;10.80;;;4.57;;
34920;SDS011;21128;50.016;20.002;2023-05-07T13:40:42;8.33;;;4.23;;
34920;SDS011;21128;50.016;20.002;2023-05-07T13:43:09;4.63;;;3.47;;
34920;SDS011;21128;50.016;20.002;2023-05-07T13:45:37;5.40;;;4.35;;
34920;SDS011;21128;50.016;20.002;2023-05-07T13:48:04;5.35;;;4.60;;
34920;SDS011;21128;50.016;20.002;2023-05-07T13:50:31;9.80;;;5.57;;
34920;SDS011;21128;50.016;20.002;2023-05-07T13:52:58;5.95;;;4.67;;
34920;SDS011;21128;50.016;20.002;2023-05-07T13:55:25;6.30;;;3.93;;
34920;SDS011;21128;50.016;20.002;2023-05-07T13:57:56;4.53;;;3.53;;
34920;SDS011;21128;50.016;20.002;2023-05-07T14:00:24;5.97;;;3.40;;
34920;SDS011;21128;50.016;20.002;2023-05-07T14:02:52;5.33;;;3.83;;
34920;SDS011;21128;50.016;20.002;2023-05-07T14:05:19;5.40;;;4.20;;
34920;SDS011;21128;50.016;20.002;2023-05-07T14:07:46;7.90;;;4.17;;
34920;SDS011;21128;50.016;20.002;2023-05-07T14:10:15;5.87;;;3.90;;
34920;SDS011;21128;50.016;20.002;2023-05-07T14:12:43;8.63;;;4.28;;
34920;SDS011;21128;50.016;20.002;2023-05-07T14:15:11;10.25;;;4.35;;
34920;SDS011;21128;50.016;20.002;2023-05-07T14:17:38;5.20;;;3.77;;
34920;SDS011;21128;50.016;20.002;2023-05-07T14:20:05;6.47;;;3.93;;
34920;SDS011;21128;50.016;20.002;2023-05-07T14:22:36;5.23;;;4.23;;
34920;SDS011;21128;50.016;20.002;2023-05-07T14:25:04;5.62;;;3.90;;
34920;SDS011;21128;50.016;20.002;2023-05-07T14:27:31;6.12;;;4.33;;
34920;SDS011;21128;50.016;20.002;2023-05-07T14:29:58;7.80;;;4.97;;
34920;SDS011;21128;50.016;20.002;2023-05-07T14:32:25;6.70;;;5.00;;
34920;SDS011;21128;50.016;20.002;2023-05-07T14:34:53;6.80;;;5.70;;
34920;SDS011;21128;50.016;20.002;2023-05-07T14:37:19;7.10;;;5.83;;
34920;SDS011;21128;50.016;20.002;2023-05-07T14:39:46;10.43;;;5.27;;
34920;SDS011;21128;50.016;20.002;2023-05-07T14:42:13;7.75;;;4.87;;
34920;SDS011;21128;50.016;20.002;2023-05-07T14:44:40;6.43;;;5.30;;
34920;SDS011;21128;50.016;20.002;2023-05-07T14:47:07;5.72;;;5.03;;
34920;SDS011;21128;50.016;20.002;2023-05-07T14:49:35;6.47;;;5.43;;